createdAt,value
2022-11-16T00:01:35.461Z,11.03
2022-11-16T00:04:04.487Z,11.08
2022-11-16T00:06:31.097Z,11.12
2022-11-16T00:09:19.048Z,11.05
2022-11-16T00:11:45.925Z,11.10
2022-11-16T00:14:12.565Z,11.07
2022-11-16T00:16:39.770Z,11.12
2022-11-16T00:19:07.832Z,11.03
2022-11-16T00:21:35.862Z,11.12
2022-11-16T00:24:03.220Z,11.09
2022-11-16T00:26:32.459Z,11.06
2022-11-16T00:28:59.605Z,11.16
2022-11-16T00:31:26.393Z,11.19
2022-11-16T00:33:53.152Z,11.09
2022-11-16T00:36:19.891Z,11.10
2022-11-16T00:38:49.770Z,11.14
2022-11-16T00:41:16.583Z,11.13
2022-11-16T00:43:43.334Z,11.16
2022-11-16T00:46:10.075Z,11.14
2022-11-16T00:48:37.052Z,11.17
2022-11-16T00:51:03.809Z,11.23
2022-11-16T00:53:32.458Z,11.20
2022-11-16T00:55:59.188Z,11.23
2022-11-16T00:58:25.979Z,11.16
2022-11-16T01:00:52.806Z,11.22
2022-11-16T01:03:19.963Z,11.15
2022-11-16T01:05:47.193Z,11.18
2022-11-16T01:08:14.929Z,11.26
2022-11-16T01:10:41.905Z,11.19
2022-11-16T01:13:08.540Z,11.22
2022-11-16T01:15:35.188Z,11.11
2022-11-16T01:18:01.809Z,11.17
2022-11-16T01:20:29.637Z,11.22
2022-11-16T01:22:56.661Z,11.23
2022-11-16T01:25:23.419Z,11.18
2022-11-16T01:27:50.366Z,11.15
2022-11-16T01:30:19.773Z,11.13
2022-11-16T01:32:46.362Z,11.14
2022-11-16T01:35:20.777Z,11.19
2022-11-16T01:37:47.507Z,11.19
2022-11-16T01:40:15.346Z,11.30
2022-11-16T01:42:43.479Z,11.26
2022-11-16T01:45:21.459Z,11.28
2022-11-16T01:47:55.753Z,11.23
2022-11-16T01:50:23.186Z,11.21
2022-11-16T01:52:57.291Z,11.31
2022-11-16T01:55:25.025Z,11.25
2022-11-16T01:57:52.347Z,11.20
2022-11-16T02:00:19.903Z,11.33
2022-11-16T02:02:46.485Z,11.35
2022-11-16T02:05:19.498Z,11.34
2022-11-16T02:08:25.230Z,11.30
2022-11-16T02:11:10.008Z,11.36
2022-11-16T02:13:42.658Z,11.38
2022-11-16T02:16:38.064Z,11.43
2022-11-16T02:19:13.601Z,11.41
2022-11-16T02:21:52.105Z,11.31
2022-11-16T02:24:45.924Z,11.25
2022-11-16T02:27:24.787Z,11.37
2022-11-16T02:29:54.937Z,11.35
2022-11-16T02:32:39.746Z,11.36
2022-11-16T02:35:14.708Z,11.40
2022-11-16T02:37:48.968Z,11.46
2022-11-16T02:40:30.775Z,11.39
2022-11-16T02:43:26.482Z,11.39
2022-11-16T02:45:57.253Z,11.39
2022-11-16T02:48:29.122Z,11.31
2022-11-16T02:50:56.357Z,11.34
2022-11-16T02:53:25.026Z,11.38
2022-11-16T02:55:51.771Z,11.38
2022-11-16T02:58:21.580Z,11.38
2022-11-16T03:00:55.809Z,11.37
2022-11-16T03:03:28.846Z,11.35
2022-11-16T03:06:04.435Z,11.32
2022-11-16T03:08:38.962Z,11.28
2022-11-16T03:11:27.239Z,11.38
2022-11-16T03:14:01.617Z,11.32
2022-11-16T03:16:50.707Z,11.46
2022-11-16T03:19:26.044Z,11.39
2022-11-16T03:22:07.292Z,11.36
2022-11-16T03:24:33.873Z,11.39
2022-11-16T03:27:19.359Z,11.35
2022-11-16T03:30:14.565Z,11.35
2022-11-16T03:32:59.935Z,11.31
2022-11-16T03:35:38.950Z,11.26
2022-11-16T03:38:08.192Z,11.32
2022-11-16T03:40:36.332Z,11.29
2022-11-16T03:43:04.107Z,11.25
2022-11-16T03:45:32.374Z,11.27
2022-11-16T03:47:59.977Z,11.22
2022-11-16T03:50:26.916Z,11.26
2022-11-16T03:52:53.544Z,11.12
2022-11-16T03:55:20.130Z,11.24
2022-11-16T03:57:46.638Z,11.19
2022-11-16T04:00:13.506Z,11.09
2022-11-16T04:02:40.168Z,11.09
2022-11-16T04:05:27.521Z,11.14
2022-11-16T04:08:12.623Z,11.04
2022-11-16T04:10:57.712Z,11.06
2022-11-16T04:13:50.237Z,11.03
2022-11-16T04:16:55.339Z,11.01
2022-11-16T04:19:43.422Z,11.02
2022-11-16T04:22:43.495Z,10.98
2022-11-16T04:25:19.610Z,11.05
2022-11-16T04:28:04.632Z,10.99
2022-11-16T04:30:51.150Z,10.94
2022-11-16T04:33:36.400Z,10.93
2022-11-16T04:36:21.630Z,10.89
2022-11-16T04:38:50.307Z,10.92
2022-11-16T04:41:35.380Z,11.00
2022-11-16T04:44:01.864Z,10.95
2022-11-16T04:46:46.898Z,10.97
2022-11-16T04:49:13.391Z,10.96
2022-11-16T04:51:39.992Z,10.94
2022-11-16T04:54:06.506Z,10.88
2022-11-16T04:56:33.113Z,10.88
2022-11-16T04:58:59.686Z,10.80
2022-11-16T05:01:44.708Z,10.78
2022-11-16T05:04:11.472Z,10.84
2022-11-16T05:06:38.041Z,10.89
2022-11-16T05:09:04.750Z,10.87
2022-11-16T05:11:31.354Z,10.84
2022-11-16T05:13:57.906Z,10.89
2022-11-16T05:16:24.449Z,10.89
2022-11-16T05:19:11.066Z,10.80
2022-11-16T05:21:37.637Z,10.74
2022-11-16T05:24:23.303Z,10.70
2022-11-16T05:26:50.099Z,10.68
2022-11-16T05:29:16.888Z,10.72
2022-11-16T05:31:43.623Z,10.71
2022-11-16T05:34:11.210Z,10.66
2022-11-16T05:36:38.013Z,10.63
2022-11-16T05:39:04.746Z,10.59
2022-11-16T05:41:32.008Z,10.66
2022-11-16T05:43:59.154Z,10.63
2022-11-16T05:46:26.102Z,10.60
2022-11-16T05:48:52.789Z,10.53
2022-11-16T05:51:22.811Z,10.52
2022-11-16T05:53:52.364Z,10.52
2022-11-16T05:56:18.878Z,10.54
2022-11-16T05:58:46.147Z,10.50
2022-11-16T06:01:13.183Z,10.47
2022-11-16T06:03:39.990Z,10.53
2022-11-16T06:06:07.138Z,10.37
2022-11-16T06:08:37.017Z,10.30
2022-11-16T06:11:06.538Z,10.34
2022-11-16T06:13:33.821Z,10.33
2022-11-16T06:16:01.447Z,10.25
2022-11-16T06:18:28.694Z,10.29
2022-11-16T06:20:56.050Z,10.35
2022-11-16T06:23:23.608Z,10.15
2022-11-16T06:26:06.859Z,10.23
2022-11-16T06:28:34.734Z,10.15
2022-11-16T06:31:05.261Z,10.28
2022-11-16T06:33:33.770Z,10.06
2022-11-16T06:36:03.666Z,10.27
2022-11-16T06:38:30.860Z,10.12
2022-11-16T06:41:01.573Z,10.20
2022-11-16T06:43:28.589Z,9.98
2022-11-16T06:45:57.809Z,9.98
2022-11-16T06:48:42.289Z,10.05
2022-11-16T06:51:09.273Z,10.14
2022-11-16T06:53:38.738Z,10.11
2022-11-16T06:56:06.606Z,9.93
2022-11-16T06:58:35.241Z,10.07
2022-11-16T07:01:13.128Z,9.67
2022-11-16T07:03:40.484Z,9.66
2022-11-16T07:06:12.016Z,9.81
2022-11-16T07:08:42.257Z,9.74
2022-11-16T07:11:31.325Z,9.75
2022-11-16T07:13:58.435Z,9.86
2022-11-16T07:16:25.348Z,9.60
2022-11-16T07:18:52.178Z,9.73
2022-11-16T07:21:20.197Z,9.51
2022-11-16T07:23:46.890Z,9.68
2022-11-16T07:26:13.584Z,9.53
2022-11-16T07:28:46.588Z,9.52
2022-11-16T07:31:19.057Z,9.59
2022-11-16T07:33:45.800Z,9.60
2022-11-16T07:36:15.004Z,9.52
2022-11-16T07:38:42.038Z,9.51
2022-11-16T07:41:11.336Z,9.50
2022-11-16T07:43:38.269Z,9.52
2022-11-16T07:49:07.047Z,9.47
2022-11-16T07:51:37.971Z,9.45
2022-11-16T07:54:04.722Z,9.42
2022-11-16T07:56:31.292Z,9.24
2022-11-16T07:58:59.044Z,9.35
2022-11-16T08:01:28.400Z,9.36
2022-11-16T08:03:54.992Z,9.35
2022-11-16T08:06:24.976Z,9.35
2022-11-16T08:08:57.828Z,9.34
2022-11-16T08:11:25.105Z,9.24
2022-11-16T08:13:51.653Z,9.30
2022-11-16T08:16:20.461Z,9.27
2022-11-16T08:18:47.003Z,9.28
2022-11-16T08:21:15.536Z,9.22
2022-11-16T08:23:45.114Z,9.20
2022-11-16T08:26:17.970Z,9.23
2022-11-16T08:28:51.097Z,9.25
2022-11-16T08:31:22.244Z,9.26
2022-11-16T08:33:48.772Z,9.31
2022-11-16T08:36:18.764Z,9.29
2022-11-16T08:38:46.900Z,9.26
2022-11-16T08:41:14.114Z,9.29
2022-11-16T08:43:41.005Z,9.30
2022-11-16T08:46:09.363Z,9.29
2022-11-16T08:48:36.340Z,9.34
2022-11-16T08:51:20.495Z,9.28
2022-11-16T08:53:49.158Z,9.29
2022-11-16T08:56:18.000Z,9.35
2022-11-16T08:58:47.533Z,9.32
2022-11-16T09:01:17.442Z,9.35
2022-11-16T09:03:45.457Z,9.33
2022-11-16T09:06:12.441Z,9.40
2022-11-16T09:08:40.803Z,9.35
2022-11-16T09:11:09.482Z,9.37
2022-11-16T09:13:36.104Z,9.39
2022-11-16T09:16:03.975Z,9.47
2022-11-16T09:18:30.884Z,9.50
2022-11-16T09:20:57.870Z,9.49
2022-11-16T09:23:25.748Z,9.50
2022-11-16T09:25:53.289Z,9.49
2022-11-16T09:28:24.163Z,9.48
2022-11-16T09:30:51.569Z,9.57
2022-11-16T09:33:18.838Z,9.54
2022-11-16T09:35:47.035Z,9.60
2022-11-16T09:38:19.067Z,9.60
2022-11-16T09:40:48.833Z,9.59
2022-11-16T09:43:28.321Z,9.57
2022-11-16T09:46:31.626Z,9.69
2022-11-16T09:49:00.388Z,9.69
2022-11-16T09:51:33.092Z,9.71
2022-11-16T09:54:06.395Z,9.71
2022-11-16T09:56:37.380Z,9.76
2022-11-16T09:59:05.866Z,9.90
2022-11-16T10:01:45.498Z,9.85
2022-11-16T10:04:20.241Z,9.84
2022-11-16T10:07:03.304Z,9.85
2022-11-16T10:09:30.354Z,9.85
2022-11-16T10:12:09.127Z,9.88
2022-11-16T10:15:01.367Z,9.85
2022-11-16T10:17:50.813Z,9.92
2022-11-16T10:20:48.576Z,9.83
2022-11-16T10:23:21.910Z,9.80
2022-11-16T10:26:47.411Z,9.84
2022-11-16T10:29:35.450Z,9.94
2022-11-16T10:32:28.882Z,9.93
2022-11-16T10:35:02.069Z,9.97
2022-11-16T10:37:36.902Z,10.04
2022-11-16T10:40:29.983Z,10.04
2022-11-16T10:43:02.759Z,10.14
2022-11-16T10:45:37.790Z,10.12
2022-11-16T10:48:15.813Z,10.22
2022-11-16T10:50:53.005Z,10.21
2022-11-16T10:53:45.963Z,10.24
2022-11-16T10:56:19.988Z,10.27
2022-11-16T10:58:50.500Z,10.27
2022-11-16T11:01:41.998Z,10.32
2022-11-16T11:04:28.107Z,10.42
2022-11-16T11:07:22.293Z,10.50
2022-11-16T11:09:53.390Z,10.46
2022-11-16T11:12:42.173Z,10.41
2022-11-16T11:15:11.786Z,10.52
2022-11-16T11:18:10.779Z,10.59
2022-11-16T11:20:44.705Z,10.59
2022-11-16T11:23:30.248Z,10.58
2022-11-16T11:25:59.376Z,10.52
2022-11-16T11:28:27.691Z,10.61
2022-11-16T11:31:09.351Z,10.69
2022-11-16T11:33:40.787Z,10.70
2022-11-16T11:36:18.953Z,10.77
2022-11-16T11:39:28.220Z,10.71
2022-11-16T11:42:21.514Z,10.69
2022-11-16T11:44:59.739Z,10.76
2022-11-16T11:47:59.548Z,10.85
2022-11-16T11:50:45.183Z,10.88
2022-11-16T11:53:36.214Z,10.87
2022-11-16T11:56:03.064Z,10.83
2022-11-16T11:58:33.088Z,10.74
2022-11-16T12:01:02.717Z,10.86
2022-11-16T12:03:51.024Z,10.96
2022-11-16T12:06:33.387Z,11.03
2022-11-16T12:09:11.847Z,11.05
2022-11-16T12:11:57.742Z,11.01
2022-11-16T12:14:52.675Z,11.03
2022-11-16T12:17:42.125Z,10.98
2022-11-16T12:20:17.936Z,10.98
2022-11-16T12:22:50.297Z,11.02
2022-11-16T12:25:56.031Z,11.12
2022-11-16T12:28:51.073Z,11.09
2022-11-16T12:31:27.330Z,11.24
2022-11-16T12:34:20.592Z,11.16
2022-11-16T12:37:08.448Z,11.04
2022-11-16T12:39:47.036Z,10.98
2022-11-16T12:42:19.687Z,10.89
2022-11-16T12:45:04.824Z,11.08
2022-11-16T12:48:22.089Z,11.09
2022-11-16T12:51:11.409Z,11.18
2022-11-16T12:54:10.270Z,11.23
2022-11-16T12:57:15.223Z,11.23
2022-11-16T13:00:19.205Z,11.39
2022-11-16T13:03:19.392Z,11.32
2022-11-16T13:06:04.350Z,11.35
2022-11-16T13:08:37.822Z,11.41
2022-11-16T13:11:20.329Z,11.37
2022-11-16T13:13:53.610Z,11.28
2022-11-16T13:16:22.824Z,11.28
2022-11-16T13:18:53.862Z,11.25
2022-11-16T13:22:04.802Z,11.26
2022-11-16T13:24:40.364Z,11.22
2022-11-16T13:27:17.883Z,11.22
2022-11-16T13:30:11.011Z,11.20
2022-11-16T13:32:56.166Z,11.15
2022-11-16T13:35:24.000Z,11.18
2022-11-16T13:37:54.579Z,11.26
2022-11-16T13:40:25.185Z,11.27
2022-11-16T13:43:01.141Z,11.28
2022-11-16T13:45:52.155Z,11.17
2022-11-16T13:48:25.211Z,11.18
2022-11-16T13:51:02.881Z,11.11
2022-11-16T13:56:51.094Z,11.02
2022-11-16T13:59:25.222Z,11.03
2022-11-16T14:01:57.282Z,11.08
2022-11-16T14:04:42.684Z,11.22
2022-11-16T14:07:33.019Z,11.29
2022-11-16T14:10:00.603Z,11.03
2022-11-16T14:13:07.028Z,11.28
2022-11-16T14:15:38.929Z,11.29
2022-11-16T14:18:09.266Z,11.20
2022-11-16T14:20:54.008Z,10.94
2022-11-16T14:23:25.926Z,11.15
2022-11-16T14:26:27.180Z,11.08
2022-11-16T14:29:32.565Z,11.02
2022-11-16T14:32:02.499Z,10.85
2022-11-16T14:34:45.478Z,10.86
2022-11-16T14:37:30.592Z,10.87
2022-11-16T14:40:16.213Z,10.69
2022-11-16T14:43:16.005Z,10.71
2022-11-16T14:45:51.227Z,10.70
2022-11-16T14:48:20.629Z,10.76
2022-11-16T14:50:58.423Z,10.61
2022-11-16T14:53:28.699Z,10.68
2022-11-16T14:56:09.454Z,10.61
2022-11-16T14:58:37.026Z,10.56
2022-11-16T15:01:14.987Z,10.57
2022-11-16T15:04:02.591Z,10.46
2022-11-16T15:06:33.047Z,10.55
2022-11-16T15:09:08.466Z,10.23
2022-11-16T15:12:01.631Z,10.37
2022-11-16T15:14:37.133Z,10.02
2022-11-16T15:17:06.788Z,10.19
2022-11-16T15:19:33.691Z,9.91
2022-11-16T15:22:03.069Z,10.13
2022-11-16T15:24:34.761Z,9.79
2022-11-16T15:27:16.830Z,10.04
2022-11-16T15:29:43.675Z,9.83
2022-11-16T15:32:17.045Z,9.90
2022-11-16T15:34:49.040Z,10.08
2022-11-16T15:37:26.881Z,9.95
2022-11-16T15:39:54.453Z,9.67
2022-11-16T15:42:22.886Z,9.90
2022-11-16T15:44:50.941Z,9.86
2022-11-16T15:47:21.167Z,9.69
2022-11-16T15:49:53.241Z,9.60
2022-11-16T15:52:43.604Z,9.72
2022-11-16T15:55:42.363Z,9.67
2022-11-16T15:58:14.627Z,9.63
2022-11-16T16:00:43.827Z,9.63
2022-11-16T16:03:30.058Z,9.73
2022-11-16T16:06:01.811Z,9.47
2022-11-16T16:08:38.300Z,9.62
2022-11-16T16:11:27.051Z,9.54
2022-11-16T16:14:02.216Z,9.50
2022-11-16T16:16:39.285Z,9.56
2022-11-16T16:19:27.425Z,9.51
2022-11-16T16:21:54.108Z,9.49
2022-11-16T16:24:38.057Z,9.46
2022-11-16T16:27:27.411Z,9.49
2022-11-16T16:29:56.112Z,9.48
2022-11-16T16:32:22.643Z,9.58
2022-11-16T16:34:49.971Z,9.57
2022-11-16T16:37:17.374Z,9.52
2022-11-16T16:39:44.115Z,9.49
2022-11-16T16:42:13.670Z,9.43
2022-11-16T16:44:41.941Z,9.53
2022-11-16T16:47:12.055Z,9.21
2022-11-16T16:49:38.949Z,9.50
2022-11-16T16:52:07.280Z,9.32
2022-11-16T16:54:33.911Z,9.46
2022-11-16T16:57:02.488Z,9.48
2022-11-16T16:59:32.179Z,9.43
2022-11-16T17:01:59.355Z,9.43
2022-11-16T17:04:26.292Z,9.48
2022-11-16T17:06:53.610Z,9.43
2022-11-16T17:09:20.768Z,9.36
2022-11-16T17:11:49.614Z,9.41
2022-11-16T17:14:16.612Z,9.20
2022-11-16T17:16:43.428Z,9.23
2022-11-16T17:19:10.121Z,9.37
2022-11-16T17:21:36.702Z,9.23
2022-11-16T17:24:03.797Z,9.45
2022-11-16T17:26:30.802Z,9.17
2022-11-16T17:28:58.343Z,9.19
2022-11-16T17:31:26.490Z,8.99
2022-11-16T17:33:53.434Z,9.06
2022-11-16T17:36:23.564Z,9.29
2022-11-16T17:38:50.491Z,9.13
2022-11-16T17:41:23.132Z,9.19
2022-11-16T17:43:56.629Z,9.12
2022-11-16T17:46:25.858Z,8.99
2022-11-16T17:48:53.010Z,9.11
2022-11-16T17:51:21.923Z,9.16
2022-11-16T17:53:51.506Z,9.21
2022-11-16T17:56:23.542Z,9.18
2022-11-16T17:59:00.485Z,9.20
2022-11-16T18:01:30.933Z,9.28
2022-11-16T18:03:57.450Z,9.34
2022-11-16T18:06:25.375Z,9.29
2022-11-16T18:08:52.594Z,9.28
2022-11-16T18:11:21.937Z,9.24
2022-11-16T18:13:56.260Z,9.21
2022-11-16T18:16:25.322Z,9.20
2022-11-16T18:18:57.896Z,9.17
2022-11-16T18:21:24.680Z,9.22
2022-11-16T18:23:54.085Z,9.16
2022-11-16T18:26:25.365Z,9.09
2022-11-16T18:28:53.116Z,9.20
2022-11-16T18:31:24.814Z,9.02
2022-11-16T18:33:55.650Z,9.07
2022-11-16T18:36:23.038Z,9.03
2022-11-16T18:38:56.866Z,9.11
2022-11-16T18:41:32.421Z,9.05
2022-11-16T18:44:03.845Z,9.09
2022-11-16T18:46:32.911Z,9.07
2022-11-16T18:49:00.721Z,9.00
2022-11-16T18:51:32.509Z,9.07
2022-11-16T18:54:01.628Z,8.95
2022-11-16T18:56:28.488Z,9.28
2022-11-16T18:58:58.695Z,9.08
2022-11-16T19:01:33.876Z,9.37
2022-11-16T19:04:04.806Z,9.43
2022-11-16T19:06:32.728Z,9.29
2022-11-16T19:09:00.147Z,9.17
2022-11-16T19:11:28.486Z,9.03
2022-11-16T19:14:05.114Z,9.36
2022-11-16T19:16:35.546Z,9.40
2022-11-16T19:19:14.594Z,9.16
2022-11-16T19:21:58.219Z,9.33
2022-11-16T19:24:39.266Z,9.05
2022-11-16T19:27:22.469Z,9.32
2022-11-16T19:30:05.185Z,9.57
2022-11-16T19:33:05.287Z,9.30
2022-11-16T19:35:58.144Z,9.20
2022-11-16T19:39:26.359Z,9.22
2022-11-16T19:41:47.712Z,9.51
2022-11-16T19:47:53.383Z,9.53
2022-11-16T19:50:50.286Z,9.30
2022-11-16T20:01:24.165Z,9.35
2022-11-16T20:07:54.569Z,9.04
2022-11-16T20:10:42.750Z,9.40
2022-11-16T20:13:29.442Z,9.21
2022-11-16T20:16:39.350Z,9.31
2022-11-16T20:19:03.763Z,9.12
2022-11-16T20:21:34.964Z,9.39
2022-11-16T20:24:14.729Z,9.12
2022-11-16T20:26:51.121Z,9.51
2022-11-16T20:29:22.870Z,9.48
2022-11-16T20:32:12.836Z,9.19
2022-11-16T20:34:40.598Z,9.34
2022-11-16T20:37:41.558Z,9.38
2022-11-16T20:44:04.297Z,9.29
2022-11-16T20:46:55.464Z,9.28
2022-11-16T20:50:40.865Z,9.62
2022-11-16T20:53:32.174Z,9.49
2022-11-16T20:56:28.133Z,9.49
2022-11-16T20:59:21.871Z,9.46
2022-11-16T21:02:08.321Z,9.40
2022-11-16T21:04:49.698Z,9.64
2022-11-16T21:07:28.825Z,9.31
2022-11-16T21:10:17.308Z,9.66
2022-11-16T21:13:04.406Z,9.36
2022-11-16T21:15:43.903Z,9.33
2022-11-16T21:18:30.583Z,9.51
2022-11-16T21:21:04.152Z,9.30
2022-11-16T21:23:37.243Z,9.50
2022-11-16T21:26:09.655Z,9.31
2022-11-16T21:29:00.000Z,9.47
2022-11-16T21:31:31.460Z,9.55
2022-11-16T21:34:12.113Z,9.70
2022-11-16T21:36:50.951Z,9.68
2022-11-16T21:39:24.802Z,9.33
2022-11-16T21:41:56.212Z,9.44
2022-11-16T21:44:47.735Z,9.50
2022-11-16T21:47:41.181Z,9.68
2022-11-16T21:50:31.204Z,9.40
2022-11-16T21:53:03.913Z,9.54
2022-11-16T21:55:31.757Z,9.52
2022-11-16T21:58:06.287Z,9.33
2022-11-16T22:00:34.056Z,9.49
2022-11-16T22:03:06.707Z,9.39
2022-11-16T22:05:51.963Z,9.65
2022-11-16T22:08:18.906Z,9.74
2022-11-16T22:10:53.051Z,9.67
2022-11-16T22:13:22.046Z,9.71
2022-11-16T22:15:49.735Z,9.75
2022-11-16T22:18:16.653Z,9.64
2022-11-16T22:20:47.262Z,9.62
2022-11-16T22:23:16.447Z,9.47
2022-11-16T22:25:49.992Z,9.77
2022-11-16T22:28:22.888Z,9.75
2022-11-16T22:31:08.052Z,9.78
2022-11-16T22:33:37.269Z,9.79
2022-11-16T22:36:05.023Z,9.67
2022-11-16T22:38:33.186Z,9.84
2022-11-16T22:41:02.884Z,9.81
2022-11-16T22:43:31.207Z,9.79
2022-11-16T22:45:59.260Z,9.90
2022-11-16T22:48:31.309Z,9.92
2022-11-16T22:51:22.110Z,9.91
2022-11-16T22:54:02.902Z,9.94
2022-11-16T22:56:31.439Z,9.92
2022-11-16T22:58:58.407Z,9.91
2022-11-16T23:01:25.307Z,9.95
2022-11-16T23:03:52.011Z,9.87
2022-11-16T23:06:20.898Z,9.88
2022-11-16T23:08:47.612Z,9.89
2022-11-16T23:11:38.546Z,9.85
2022-11-16T23:14:25.823Z,9.90
2022-11-16T23:16:52.816Z,9.81
2022-11-16T23:19:39.253Z,9.83
2022-11-16T23:22:26.313Z,9.91
2022-11-16T23:25:11.636Z,9.90
2022-11-16T23:28:00.046Z,9.90
2022-11-16T23:30:27.068Z,9.78
2022-11-16T23:32:54.139Z,9.71
2022-11-16T23:35:20.890Z,9.78
2022-11-16T23:38:03.343Z,9.78
2022-11-16T23:40:31.378Z,9.69
2022-11-16T23:43:18.632Z,9.72
2022-11-16T23:45:45.723Z,9.69
2022-11-16T23:48:14.904Z,9.70
2022-11-16T23:50:42.372Z,9.54
2022-11-16T23:53:14.674Z,9.69
2022-11-16T23:55:42.470Z,9.51
2022-11-16T23:58:17.172Z,9.42
